createdAt,value
2022-10-20T00:00:21.436Z,8.10
2022-10-20T00:02:48.081Z,8.10
2022-10-20T00:05:14.790Z,8.10
2022-10-20T00:07:41.496Z,8.10
2022-10-20T00:10:08.667Z,8.20
2022-10-20T00:12:35.657Z,8.20
2022-10-20T00:15:02.566Z,8.20
2022-10-20T00:17:29.288Z,8.20
2022-10-20T00:19:55.958Z,8.20
2022-10-20T00:22:22.689Z,8.30
2022-10-20T00:24:49.259Z,8.30
2022-10-20T00:27:15.860Z,8.20
2022-10-20T00:29:42.461Z,8.30
2022-10-20T00:32:09.095Z,8.30
2022-10-20T00:34:35.656Z,8.30
2022-10-20T00:37:02.286Z,8.30
2022-10-20T00:39:28.858Z,8.30
2022-10-20T00:41:55.425Z,8.30
2022-10-20T00:44:47.094Z,8.30
2022-10-20T00:47:17.919Z,8.30
2022-10-20T00:49:45.074Z,8.30
2022-10-20T00:52:12.189Z,8.40
2022-10-20T00:54:39.075Z,8.30
2022-10-20T00:57:06.066Z,8.30
2022-10-20T00:59:36.564Z,8.20
2022-10-20T01:02:06.731Z,8.20
2022-10-20T01:04:36.281Z,8.20
2022-10-20T01:07:03.344Z,8.10
2022-10-20T01:09:30.984Z,8.10
2022-10-20T01:12:26.329Z,7.60
2022-10-20T01:15:14.851Z,8.00
2022-10-20T01:18:01.589Z,8.00
2022-10-20T01:21:04.819Z,7.90
2022-10-20T01:23:44.800Z,7.90
2022-10-20T01:26:45.330Z,7.90
2022-10-20T01:29:42.904Z,7.90
2022-10-20T01:32:14.808Z,7.90
2022-10-20T01:34:56.394Z,7.90
2022-10-20T01:37:48.448Z,7.80
2022-10-20T01:40:26.179Z,7.80
2022-10-20T01:42:54.915Z,7.70
2022-10-20T01:45:24.225Z,8.00
2022-10-20T01:47:53.567Z,7.60
2022-10-20T01:50:21.574Z,7.60
2022-10-20T01:52:48.266Z,7.60
2022-10-20T01:55:17.763Z,7.50
2022-10-20T01:58:20.776Z,7.50
2022-10-20T02:00:49.355Z,7.50
2022-10-20T02:03:34.918Z,7.40
2022-10-20T02:06:19.743Z,7.40
2022-10-20T02:09:08.555Z,7.30
2022-10-20T02:12:01.253Z,7.30
2022-10-20T02:14:28.605Z,7.30
2022-10-20T02:16:59.183Z,7.20
2022-10-20T02:19:28.558Z,7.10
2022-10-20T02:21:56.444Z,7.10
2022-10-20T02:24:24.896Z,7.10
2022-10-20T02:26:52.208Z,7.10
2022-10-20T02:29:20.748Z,7.10
2022-10-20T02:31:47.605Z,7.00
2022-10-20T02:34:14.572Z,7.00
2022-10-20T02:36:42.180Z,7.00
2022-10-20T02:39:09.417Z,6.70
2022-10-20T02:41:36.349Z,6.90
2022-10-20T02:44:02.927Z,6.90
2022-10-20T02:46:29.565Z,6.90
2022-10-20T02:48:56.156Z,7.00
2022-10-20T02:51:22.753Z,7.00
2022-10-20T02:53:49.977Z,7.00
2022-10-20T02:56:16.635Z,7.00
2022-10-20T02:58:43.200Z,7.00
2022-10-20T03:01:09.769Z,7.00
2022-10-20T03:03:36.441Z,7.00
2022-10-20T03:06:20.933Z,7.00
2022-10-20T03:08:47.513Z,6.90
2022-10-20T03:11:14.088Z,6.90
2022-10-20T03:13:40.878Z,6.80
2022-10-20T03:16:07.588Z,6.80
2022-10-20T03:18:34.222Z,6.70
2022-10-20T03:21:01.174Z,6.80
2022-10-20T03:23:27.759Z,6.80
2022-10-20T03:26:00.493Z,6.70
2022-10-20T03:28:27.102Z,6.70
2022-10-20T03:30:53.787Z,6.70
2022-10-20T03:33:20.377Z,6.70
2022-10-20T03:35:46.953Z,6.80
2022-10-20T03:38:13.503Z,6.70
2022-10-20T03:40:40.083Z,6.70
2022-10-20T03:43:06.675Z,6.70
2022-10-20T03:45:33.318Z,6.60
2022-10-20T03:47:59.869Z,6.60
2022-10-20T03:50:26.620Z,6.60
2022-10-20T03:52:53.202Z,6.60
2022-10-20T03:55:19.807Z,6.60
2022-10-20T03:57:46.385Z,6.50
2022-10-20T04:00:13.134Z,6.50
2022-10-20T04:02:46.413Z,6.50
2022-10-20T04:05:13.911Z,6.50
2022-10-20T04:07:40.444Z,6.50
2022-10-20T04:10:07.552Z,6.50
2022-10-20T04:12:34.459Z,6.40
2022-10-20T04:15:01.433Z,6.40
2022-10-20T04:17:28.143Z,6.50
2022-10-20T04:19:55.293Z,6.50
2022-10-20T04:22:21.833Z,6.50
2022-10-20T04:24:48.369Z,6.50
2022-10-20T04:27:14.912Z,6.50
2022-10-20T04:29:41.488Z,6.40
2022-10-20T04:32:08.074Z,6.50
2022-10-20T04:34:34.906Z,6.50
2022-10-20T04:37:01.621Z,6.50
2022-10-20T04:39:28.285Z,6.50
2022-10-20T04:41:54.868Z,6.40
2022-10-20T04:44:21.445Z,6.40
2022-10-20T04:46:48.121Z,6.40
2022-10-20T04:49:15.165Z,6.30
2022-10-20T04:51:41.892Z,6.40
2022-10-20T04:54:08.557Z,6.30
2022-10-20T04:56:35.135Z,6.30
2022-10-20T04:59:03.082Z,6.20
2022-10-20T05:01:30.523Z,6.20
2022-10-20T05:03:57.245Z,6.20
2022-10-20T05:06:23.865Z,6.30
2022-10-20T05:08:51.823Z,6.40
2022-10-20T05:11:19.848Z,6.40
2022-10-20T05:13:46.499Z,6.50
2022-10-20T05:16:13.550Z,6.50
2022-10-20T05:18:40.681Z,6.50
2022-10-20T05:21:09.784Z,6.50
2022-10-20T05:23:37.467Z,6.50
2022-10-20T05:26:05.175Z,6.50
2022-10-20T05:28:32.075Z,6.60
2022-10-20T05:31:05.739Z,6.60
2022-10-20T05:33:32.676Z,6.60
2022-10-20T05:35:59.233Z,6.70
2022-10-20T05:38:25.816Z,6.70
2022-10-20T05:40:52.515Z,6.70
2022-10-20T05:43:19.099Z,6.70
2022-10-20T05:45:45.659Z,6.70
2022-10-20T05:48:12.215Z,6.80
2022-10-20T05:50:38.853Z,6.80
2022-10-20T05:53:05.536Z,6.70
2022-10-20T05:55:32.704Z,6.70
2022-10-20T05:57:59.263Z,6.70
2022-10-20T06:00:30.941Z,6.70
2022-10-20T06:02:57.926Z,6.70
2022-10-20T06:05:24.598Z,6.80
2022-10-20T06:07:52.979Z,6.80
2022-10-20T06:10:19.510Z,6.80
2022-10-20T06:12:46.058Z,6.90
2022-10-20T06:15:12.666Z,7.00
2022-10-20T06:17:39.344Z,7.00
2022-10-20T06:20:06.127Z,7.10
2022-10-20T06:22:32.730Z,7.20
2022-10-20T06:24:59.267Z,7.20
2022-10-20T06:27:25.803Z,7.30
2022-10-20T06:29:54.695Z,7.40
2022-10-20T06:32:21.269Z,7.50
2022-10-20T06:34:47.851Z,7.60
2022-10-20T06:37:14.435Z,7.70
2022-10-20T06:39:40.995Z,7.80
2022-10-20T06:42:11.016Z,7.90
2022-10-20T06:44:38.832Z,8.10
2022-10-20T06:47:10.045Z,8.20
2022-10-20T06:49:36.766Z,8.40
2022-10-20T06:52:03.523Z,8.60
2022-10-20T06:54:30.305Z,8.90
2022-10-20T06:56:56.846Z,9.20
2022-10-20T06:59:23.415Z,9.50
2022-10-20T07:01:50.076Z,9.80
2022-10-20T07:04:16.846Z,10.00
2022-10-20T07:06:44.664Z,10.20
2022-10-20T07:09:13.864Z,10.50
2022-10-20T07:11:41.179Z,10.70
2022-10-20T07:14:07.823Z,10.90
2022-10-20T07:16:34.945Z,11.20
2022-10-20T07:19:02.538Z,11.40
2022-10-20T07:21:34.535Z,11.60
2022-10-20T07:24:04.245Z,12.00
2022-10-20T07:26:32.074Z,12.10
2022-10-20T07:28:59.653Z,12.20
2022-10-20T07:31:33.772Z,12.30
2022-10-20T07:34:13.163Z,12.50
2022-10-20T07:36:46.926Z,12.90
2022-10-20T07:39:13.536Z,13.50
2022-10-20T07:41:40.448Z,13.80
2022-10-20T07:44:07.556Z,14.20
2022-10-20T07:46:34.119Z,14.70
2022-10-20T07:49:23.880Z,15.20
2022-10-20T07:51:47.357Z,15.40
2022-10-20T07:54:13.930Z,16.00
2022-10-20T07:56:41.781Z,16.30
2022-10-20T07:59:09.160Z,16.90
2022-10-20T08:01:35.820Z,17.30
2022-10-20T08:04:02.552Z,17.40
2022-10-20T08:06:29.323Z,17.30
2022-10-20T08:08:55.954Z,17.10
2022-10-20T08:11:22.824Z,17.40
2022-10-20T08:13:49.413Z,17.70
2022-10-20T08:16:28.275Z,18.30
2022-10-20T08:18:59.542Z,18.60
2022-10-20T08:21:26.309Z,18.70
2022-10-20T08:23:52.869Z,19.00
2022-10-20T08:26:20.638Z,18.90
2022-10-20T08:28:48.113Z,18.60
2022-10-20T08:31:14.810Z,18.80
2022-10-20T08:33:41.353Z,18.80
2022-10-20T08:36:09.301Z,19.00
2022-10-20T08:38:36.344Z,19.30
2022-10-20T08:41:05.106Z,19.70
2022-10-20T08:43:33.509Z,20.10
2022-10-20T08:46:00.108Z,20.60
2022-10-20T08:48:28.187Z,20.60
2022-10-20T08:50:56.002Z,20.70
2022-10-20T08:53:23.820Z,20.40
2022-10-20T08:55:51.213Z,20.90
2022-10-20T08:58:22.004Z,21.20
2022-10-20T09:00:50.659Z,21.50
2022-10-20T09:03:19.079Z,22.20
2022-10-20T09:05:47.748Z,22.40
2022-10-20T09:08:14.407Z,22.40
2022-10-20T09:10:51.858Z,22.00
2022-10-20T09:13:26.151Z,22.10
2022-10-20T09:16:05.649Z,21.60
2022-10-20T09:18:32.944Z,21.10
2022-10-20T09:21:13.394Z,20.70
2022-10-20T09:23:42.430Z,20.40
2022-10-20T09:26:37.625Z,20.30
2022-10-20T09:29:14.713Z,20.60
2022-10-20T09:31:46.029Z,21.50
2022-10-20T09:34:26.082Z,22.00
2022-10-20T09:36:55.708Z,22.10
2022-10-20T09:39:23.922Z,21.70
2022-10-20T09:41:50.899Z,21.60
2022-10-20T09:44:23.677Z,21.70
2022-10-20T09:46:52.158Z,22.00
2022-10-20T09:49:27.591Z,21.60
2022-10-20T09:51:54.249Z,21.60
2022-10-20T09:54:22.389Z,22.50
2022-10-20T09:56:49.606Z,23.30
2022-10-20T09:59:20.744Z,23.60
2022-10-20T10:02:13.513Z,23.40
2022-10-20T10:04:41.749Z,23.20
2022-10-20T10:07:26.877Z,23.60
2022-10-20T10:09:57.693Z,23.70
2022-10-20T10:12:25.190Z,23.70
2022-10-20T10:14:55.561Z,23.80
2022-10-20T10:17:29.092Z,23.70
2022-10-20T10:19:56.452Z,23.80
2022-10-20T10:22:23.241Z,23.90
2022-10-20T10:24:50.285Z,24.30
2022-10-20T10:27:26.012Z,24.10
2022-10-20T10:29:53.314Z,24.10
2022-10-20T10:32:22.931Z,23.90
2022-10-20T10:34:49.449Z,24.40
2022-10-20T10:37:17.302Z,24.40
2022-10-20T10:39:43.958Z,23.50
2022-10-20T10:42:19.201Z,22.90
2022-10-20T10:44:57.519Z,22.40
2022-10-20T10:47:27.055Z,22.40
2022-10-20T10:50:02.965Z,23.20
2022-10-20T10:52:39.523Z,24.10
2022-10-20T10:55:30.452Z,25.30
2022-10-20T11:00:56.276Z,26.10
2022-10-20T11:03:37.641Z,25.50
2022-10-20T11:06:11.660Z,25.30
2022-10-20T11:09:05.421Z,25.00
2022-10-20T11:11:39.247Z,24.90
2022-10-20T11:14:21.198Z,24.30
2022-10-20T11:17:21.914Z,24.30
2022-10-20T11:19:48.547Z,24.00
2022-10-20T11:22:43.791Z,24.10
2022-10-20T11:25:34.178Z,24.50
2022-10-20T11:28:01.105Z,24.60
2022-10-20T11:30:30.043Z,24.40
2022-10-20T11:33:13.410Z,24.90
2022-10-20T11:36:01.040Z,24.60
2022-10-20T11:38:39.087Z,24.20
2022-10-20T11:41:24.995Z,23.70
2022-10-20T11:44:18.539Z,23.60
2022-10-20T11:46:52.860Z,23.20
2022-10-20T11:49:19.979Z,22.80
2022-10-20T11:51:54.939Z,23.00
2022-10-20T11:54:42.956Z,23.60
2022-10-20T11:57:57.702Z,24.00
2022-10-20T12:00:35.525Z,25.00
2022-10-20T12:03:04.904Z,25.80
2022-10-20T12:05:31.461Z,26.30
2022-10-20T12:08:28.708Z,26.40
2022-10-20T12:11:16.686Z,25.20
2022-10-20T12:13:53.754Z,23.60
2022-10-20T12:16:54.460Z,23.00
2022-10-20T12:19:24.393Z,22.60
2022-10-20T12:21:58.397Z,22.20
2022-10-20T12:24:37.188Z,21.80
2022-10-20T12:27:15.296Z,21.50
2022-10-20T12:29:41.878Z,20.70
2022-10-20T12:32:26.600Z,20.30
2022-10-20T12:34:55.014Z,20.20
2022-10-20T12:37:24.598Z,20.20
2022-10-20T12:39:52.726Z,20.30
2022-10-20T12:42:20.939Z,20.30
2022-10-20T12:44:47.974Z,20.20
2022-10-20T12:47:25.356Z,20.10
2022-10-20T12:49:56.949Z,19.90
2022-10-20T12:52:27.175Z,20.00
2022-10-20T12:54:55.107Z,20.10
2022-10-20T12:57:26.069Z,20.10
2022-10-20T12:59:52.645Z,20.00
2022-10-20T13:02:29.275Z,20.10
2022-10-20T13:04:56.372Z,20.50
2022-10-20T13:07:41.774Z,20.50
2022-10-20T13:10:26.868Z,20.40
2022-10-20T13:12:54.221Z,20.20
2022-10-20T13:15:21.974Z,20.00
2022-10-20T13:17:51.787Z,19.90
2022-10-20T13:20:24.378Z,20.00
2022-10-20T13:22:52.872Z,20.00
2022-10-20T13:25:31.214Z,19.90
2022-10-20T13:28:13.049Z,19.80
2022-10-20T13:30:59.895Z,19.60
2022-10-20T13:33:44.773Z,19.40
2022-10-20T13:36:33.813Z,19.30
2022-10-20T13:39:00.374Z,19.30
2022-10-20T13:41:36.963Z,19.40
2022-10-20T13:44:04.621Z,19.20
2022-10-20T13:46:34.916Z,19.50
2022-10-20T13:49:04.607Z,19.60
2022-10-20T13:51:38.737Z,19.40
2022-10-20T13:54:06.578Z,19.10
2022-10-20T13:56:35.032Z,19.00
2022-10-20T13:59:06.112Z,18.70
2022-10-20T14:01:34.793Z,18.40
2022-10-20T14:04:02.071Z,18.50
2022-10-20T14:06:29.765Z,18.50
2022-10-20T14:08:58.115Z,18.40
2022-10-20T14:11:33.649Z,18.50
2022-10-20T14:14:01.251Z,18.40
2022-10-20T14:16:29.095Z,18.30
2022-10-20T14:19:03.748Z,18.20
2022-10-20T14:21:38.692Z,18.10
2022-10-20T14:24:06.416Z,17.80
2022-10-20T14:26:33.111Z,17.70
2022-10-20T14:29:01.655Z,17.60
2022-10-20T14:31:28.319Z,17.50
2022-10-20T14:33:54.914Z,17.50
2022-10-20T14:39:00.610Z,17.30
2022-10-20T14:41:28.377Z,17.30
2022-10-20T14:43:58.961Z,17.20
2022-10-20T14:46:40.710Z,17.10
2022-10-20T14:49:23.519Z,17.10
2022-10-20T14:51:53.150Z,17.10
2022-10-20T14:54:19.751Z,17.10
2022-10-20T14:56:48.455Z,17.00
2022-10-20T14:59:16.109Z,17.00
2022-10-20T15:01:56.117Z,16.90
2022-10-20T15:04:26.447Z,16.80
2022-10-20T15:07:11.566Z,16.80
2022-10-20T15:09:42.450Z,16.80
2022-10-20T15:12:15.203Z,16.80
2022-10-20T15:14:43.752Z,16.70
2022-10-20T15:17:28.948Z,16.70
2022-10-20T15:19:55.624Z,16.70
2022-10-20T15:22:22.220Z,16.60
2022-10-20T15:24:49.927Z,16.70
2022-10-20T15:27:17.663Z,16.60
2022-10-20T15:29:53.046Z,16.60
2022-10-20T15:32:19.653Z,16.60
2022-10-20T15:34:46.233Z,16.50
2022-10-20T15:37:12.866Z,16.40
2022-10-20T15:39:39.451Z,16.40
2022-10-20T15:42:11.096Z,16.30
2022-10-20T15:44:38.113Z,16.30
2022-10-20T15:47:04.923Z,16.10
2022-10-20T15:49:31.536Z,16.10
2022-10-20T15:51:58.172Z,16.10
2022-10-20T15:54:24.818Z,15.90
2022-10-20T15:56:51.465Z,15.90
2022-10-20T15:59:18.290Z,15.80
2022-10-20T16:01:44.952Z,15.70
2022-10-20T16:04:23.603Z,15.60
2022-10-20T16:06:52.473Z,15.60
2022-10-20T16:09:20.465Z,15.60
2022-10-20T16:11:47.153Z,15.60
2022-10-20T16:14:15.496Z,15.50
2022-10-20T16:16:42.466Z,15.50
2022-10-20T16:19:09.189Z,15.50
2022-10-20T16:21:35.853Z,15.50
2022-10-20T16:24:02.706Z,15.40
2022-10-20T16:26:29.410Z,15.40
2022-10-20T16:28:56.003Z,15.30
2022-10-20T16:31:22.663Z,15.30
2022-10-20T16:33:49.217Z,15.30
2022-10-20T16:36:16.779Z,15.20
2022-10-20T16:38:43.698Z,15.20
2022-10-20T16:41:11.673Z,15.10
2022-10-20T16:43:42.662Z,15.10
2022-10-20T16:46:10.411Z,15.20
2022-10-20T16:48:39.033Z,15.10
2022-10-20T16:51:08.032Z,15.10
2022-10-20T16:53:34.824Z,15.00
2022-10-20T16:56:01.453Z,15.00
2022-10-20T16:58:28.304Z,15.00
2022-10-20T17:01:02.681Z,15.10
2022-10-20T17:03:30.243Z,15.00
2022-10-20T17:05:58.200Z,14.90
2022-10-20T17:08:25.863Z,15.00
2022-10-20T17:10:56.619Z,14.90
2022-10-20T17:13:23.430Z,15.00
2022-10-20T17:15:50.422Z,14.90
2022-10-20T17:18:17.396Z,14.90
2022-10-20T17:20:44.274Z,14.90
2022-10-20T17:23:10.967Z,14.90
2022-10-20T17:25:37.881Z,14.80
2022-10-20T17:28:04.570Z,14.80
2022-10-20T17:30:31.185Z,14.70
2022-10-20T17:32:57.784Z,14.70
2022-10-20T17:35:24.396Z,14.70
2022-10-20T17:37:50.975Z,14.70
2022-10-20T17:42:49.332Z,14.70
2022-10-20T17:45:15.985Z,14.60
2022-10-20T17:47:42.614Z,14.60
2022-10-20T17:52:40.968Z,14.60
2022-10-20T17:55:07.789Z,14.60
2022-10-20T17:57:34.411Z,14.60
2022-10-20T18:00:04.914Z,14.60
2022-10-20T18:02:34.763Z,14.50
2022-10-20T18:05:01.558Z,14.50
2022-10-20T18:07:28.176Z,14.50
2022-10-20T18:09:54.898Z,14.40
2022-10-20T18:12:21.637Z,14.40
2022-10-20T18:14:48.250Z,14.40
2022-10-20T18:17:14.945Z,14.30
2022-10-20T18:19:41.697Z,13.90
2022-10-20T18:22:08.316Z,14.30
2022-10-20T18:24:35.696Z,14.30
2022-10-20T18:27:02.488Z,14.20
2022-10-20T18:29:29.093Z,14.10
2022-10-20T18:31:55.682Z,14.20
2022-10-20T18:34:22.331Z,14.20
2022-10-20T18:36:49.653Z,14.70
2022-10-20T18:39:16.449Z,15.00
2022-10-20T18:41:44.335Z,15.30
2022-10-20T18:44:12.731Z,15.30
2022-10-20T18:46:39.647Z,15.60
2022-10-20T18:49:07.167Z,15.80
2022-10-20T18:51:33.910Z,15.60
2022-10-20T18:54:01.003Z,15.60
2022-10-20T18:56:28.619Z,15.60
2022-10-20T18:58:56.589Z,15.60
2022-10-20T19:01:24.480Z,15.80
2022-10-20T19:03:51.987Z,15.70
2022-10-20T19:06:20.080Z,15.80
2022-10-20T19:08:51.091Z,15.90
2022-10-20T19:11:17.921Z,16.00
2022-10-20T19:13:44.879Z,15.80
2022-10-20T19:16:12.948Z,16.00
2022-10-20T19:18:42.486Z,15.80
2022-10-20T19:21:09.117Z,15.90
2022-10-20T19:23:38.393Z,15.90
2022-10-20T19:26:06.371Z,15.70
2022-10-20T19:28:34.462Z,15.50
2022-10-20T19:31:01.317Z,15.30
2022-10-20T19:33:28.338Z,15.00
2022-10-20T19:35:54.971Z,14.90
2022-10-20T19:38:21.565Z,14.70
2022-10-20T19:40:48.132Z,14.70
2022-10-20T19:43:14.777Z,14.60
2022-10-20T19:45:41.366Z,14.50
2022-10-20T19:48:07.974Z,14.40
2022-10-20T19:50:35.085Z,14.40
2022-10-20T19:53:01.623Z,14.30
2022-10-20T19:55:28.250Z,14.10
2022-10-20T19:57:55.086Z,14.20
2022-10-20T20:00:21.650Z,14.20
2022-10-20T20:02:48.283Z,14.20
2022-10-20T20:05:14.891Z,14.20
2022-10-20T20:07:41.447Z,14.10
2022-10-20T20:10:08.076Z,14.10
2022-10-20T20:12:34.650Z,14.00
2022-10-20T20:15:01.241Z,14.00
2022-10-20T20:17:27.864Z,14.00
2022-10-20T20:19:54.486Z,13.90
2022-10-20T20:22:21.088Z,14.00
2022-10-20T20:24:47.657Z,13.90
2022-10-20T20:27:14.542Z,13.80
2022-10-20T20:29:41.112Z,13.90
2022-10-20T20:32:07.667Z,13.90
2022-10-20T20:34:34.234Z,13.90
2022-10-20T20:37:00.831Z,13.80
2022-10-20T20:39:27.540Z,13.80
2022-10-20T20:41:54.131Z,13.80
2022-10-20T20:44:20.788Z,13.80
2022-10-20T20:46:47.409Z,13.90
2022-10-20T20:49:14.170Z,13.80
2022-10-20T20:51:40.794Z,13.80
2022-10-20T20:54:08.824Z,13.80
2022-10-20T20:56:35.588Z,13.80
2022-10-20T20:59:02.702Z,13.70
2022-10-20T21:01:31.872Z,13.70
2022-10-20T21:03:59.757Z,13.70
2022-10-20T21:06:33.928Z,13.60
2022-10-20T21:09:05.599Z,13.60
2022-10-20T21:11:32.200Z,13.60
2022-10-20T21:13:59.248Z,13.60
2022-10-20T21:16:27.253Z,13.60
2022-10-20T21:19:04.175Z,13.60
2022-10-20T21:21:31.930Z,13.60
2022-10-20T21:23:59.156Z,13.60
2022-10-20T21:26:26.407Z,13.60
2022-10-20T21:28:53.179Z,13.60
2022-10-20T21:31:20.911Z,13.50
2022-10-20T21:33:54.853Z,13.60
2022-10-20T21:36:21.857Z,13.60
2022-10-20T21:38:48.449Z,13.60
2022-10-20T21:41:19.327Z,13.50
2022-10-20T21:43:47.427Z,13.50
2022-10-20T21:46:24.469Z,13.50
2022-10-20T21:48:52.148Z,13.50
2022-10-20T21:51:20.398Z,13.40
2022-10-20T21:53:46.976Z,13.50
2022-10-20T21:56:14.293Z,13.50
2022-10-20T21:58:40.951Z,13.50
2022-10-20T22:01:15.250Z,13.50
2022-10-20T22:03:42.565Z,13.40
2022-10-20T22:06:10.161Z,13.40
2022-10-20T22:08:37.813Z,13.50
2022-10-20T22:11:12.392Z,13.40
2022-10-20T22:13:39.000Z,13.40
2022-10-20T22:16:06.586Z,13.30
2022-10-20T22:18:33.236Z,13.30
2022-10-20T22:21:11.127Z,13.30
2022-10-20T22:23:40.037Z,13.30
2022-10-20T22:26:06.625Z,13.30
2022-10-20T22:28:36.331Z,13.30
2022-10-20T22:31:03.148Z,13.30
2022-10-20T22:33:29.797Z,13.30
2022-10-20T22:35:56.416Z,13.30
2022-10-20T22:38:22.945Z,13.30
2022-10-20T22:40:49.653Z,13.20
2022-10-20T22:43:16.261Z,13.20
2022-10-20T22:45:42.814Z,13.20
2022-10-20T22:48:09.349Z,13.10
2022-10-20T22:50:35.973Z,13.10
2022-10-20T22:53:02.567Z,13.00
2022-10-20T22:55:29.221Z,13.00
2022-10-20T22:57:55.936Z,13.00
2022-10-20T23:00:22.552Z,13.00
2022-10-20T23:02:49.233Z,13.00
2022-10-20T23:05:15.831Z,13.00
2022-10-20T23:07:42.399Z,13.00
2022-10-20T23:10:09.239Z,13.00
2022-10-20T23:12:36.289Z,13.00
2022-10-20T23:15:03.607Z,13.00
2022-10-20T23:17:30.337Z,13.00
2022-10-20T23:19:57.039Z,13.00
2022-10-20T23:22:23.579Z,13.00
2022-10-20T23:24:50.198Z,13.00
2022-10-20T23:27:16.906Z,13.00
2022-10-20T23:29:43.471Z,13.00
2022-10-20T23:32:10.079Z,12.90
2022-10-20T23:34:36.675Z,13.00
2022-10-20T23:37:03.422Z,13.00
2022-10-20T23:39:30.007Z,12.90
2022-10-20T23:41:56.609Z,13.00
2022-10-20T23:44:23.188Z,13.00
2022-10-20T23:46:51.902Z,12.90
2022-10-20T23:49:18.466Z,13.00
2022-10-20T23:51:45.069Z,12.90
2022-10-20T23:54:11.724Z,12.90
2022-10-20T23:56:38.293Z,12.90
2022-10-20T23:59:04.941Z,12.90
